Time;durP1;ratioP1;P1;durP2;ratioP2;P2;SDS_P1;SDS_P2;PMS_P1;PMS_P2;Temp;Humidity;BMP_temperature;BMP_pressure;BME280_temperature;BME280_humidity;BME280_pressure;Samples;Min_cycle;Max_cycle;Signal;HPM_P1;HPM_P2
2022/11/03 00:02:05;;;;;;;;;;;;;;;6.99;83.98;96768.16;4978051;28;19922;-77
2022/11/03 00:04:31;;;;;;;;;;;;;;;6.97;84.20;96763.03;4978420;28;19922;-77
2022/11/03 00:06:56;;;;;;;;;;;;;;;6.94;83.86;96762.78;4978995;28;20005;-78
2022/11/03 00:09:25;;;;;;;;;;;;;;;6.89;84.10;96760.13;4977526;28;20106;-77
2022/11/03 00:11:52;;;;;;;;;;;;;;;6.89;84.43;96750.13;4978376;28;20001;-78
2022/11/03 00:14:21;;;;;;;;;;;;;;;6.91;85.05;96745.22;4959124;28;20471;-77
2022/11/03 00:16:47;;;;;;;;;;;;;;;6.92;85.48;96741.44;4977970;28;19932;-77
2022/11/03 00:19:15;;;;;;;;;;;;;;;6.92;85.59;96738.72;4977037;28;19928;-77
2022/11/03 00:21:42;;;;;;;;;;;;;;;6.92;85.47;96738.72;4958189;29;20583;-78
2022/11/03 00:24:09;;;;;;;;;;;;;;;6.91;85.51;96731.69;4972854;28;19922;-77
2022/11/03 00:26:37;;;;;;;;;;;;;;;6.90;85.60;96729.28;4977346;28;20012;-78
2022/11/03 00:29:06;;;;;;;;;;;;;;;6.89;86.07;96728.47;4976860;28;19977;-77
2022/11/03 00:31:35;;;;;;;;;;;;;;;6.89;86.26;96719.53;4976947;28;19928;-78
2022/11/03 00:34:02;;;;;;;;;;;;;;;6.88;85.63;96721.41;4976528;28;20337;-78
2022/11/03 00:36:30;;;;;;;;;;;;;;;6.89;85.95;96723.06;4977073;28;19929;-77
2022/11/03 00:38:56;;;;;;;;;;;;;;;6.91;86.13;96715.44;4976965;28;19922;-76
2022/11/03 00:41:23;;;;;;;;;;;;;;;6.94;86.40;96714.91;4976368;28;19929;-77
2022/11/03 00:43:50;;;;;;;;;;;;;;;6.93;86.55;96707.84;4976526;28;19926;-77
2022/11/03 00:46:17;;;;;;;;;;;;;;;6.95;86.51;96716.50;4976387;28;19922;-77
2022/11/03 00:48:45;;;;;;;;;;;;;;;6.93;86.46;96713.25;4977508;28;19928;-77
2022/11/03 00:51:12;;;;;;;;;;;;;;;6.92;85.92;96710.84;4976004;28;19921;-77
2022/11/03 00:53:39;;;;;;;;;;;;;;;6.86;85.27;96712.78;4976875;28;19928;-77
2022/11/03 00:56:06;;;;;;;;;;;;;;;6.82;85.07;96711.75;4976165;28;19922;-77
2022/11/03 00:58:33;;;;;;;;;;;;;;;6.81;85.26;96715.53;4976660;28;19922;-76
2022/11/03 01:01:00;;;;;;;;;;;;;;;6.82;85.74;96711.75;4976618;28;19949;-77
2022/11/03 01:03:27;;;;;;;;;;;;;;;6.86;86.27;96701.97;4975846;28;19922;-77
2022/11/03 01:08:39;;;;;;;;;;;;;;;6.91;86.58;96698.41;4976691;28;19928;-77
2022/11/03 01:13:50;;;;;;;;;;;;;;;6.95;86.98;96684.00;4976351;28;19928;-78
2022/11/03 01:16:17;;;;;;;;;;;;;;;6.96;87.20;96680.22;4975514;28;19926;-77
2022/11/03 01:18:43;;;;;;;;;;;;;;;6.98;87.25;96682.63;4975484;28;19944;-77
2022/11/03 01:21:11;;;;;;;;;;;;;;;6.97;87.52;96676.41;4975702;28;19922;-77
2022/11/03 01:23:38;;;;;;;;;;;;;;;6.95;87.39;96672.38;4976126;28;19922;-77
2022/11/03 01:26:05;;;;;;;;;;;;;;;6.95;86.75;96675.88;4975292;28;19929;-77
2022/11/03 01:28:33;;;;;;;;;;;;;;;6.95;86.26;96670.47;4976053;28;20557;-78
2022/11/03 01:31:03;;;;;;;;;;;;;;;6.93;85.98;96667.22;4975475;28;19922;-77
2022/11/03 01:33:29;;;;;;;;;;;;;;;6.91;86.21;96661.31;4975323;28;19922;-79
2022/11/03 01:35:56;;;;;;;;;;;;;;;6.89;86.05;96663.50;4975879;28;19928;-77
2022/11/03 01:38:24;;;;;;;;;;;;;;;6.89;86.23;96658.09;4975332;28;19929;-77
2022/11/03 01:40:50;;;;;;;;;;;;;;;6.88;85.53;96650.22;4974897;28;19922;-78
2022/11/03 01:43:17;;;;;;;;;;;;;;;6.77;84.18;96650.34;4975045;28;20417;-78
2022/11/03 01:45:44;;;;;;;;;;;;;;;6.71;83.52;96645.28;4975282;28;19926;-77
2022/11/03 01:48:11;;;;;;;;;;;;;;;6.67;83.63;96646.94;4974219;28;19965;-77
2022/11/03 01:50:39;;;;;;;;;;;;;;;6.64;84.26;96644.81;4975380;28;19929;-77
2022/11/03 01:53:06;;;;;;;;;;;;;;;6.63;84.75;96635.06;4974414;28;20293;-77
2022/11/03 01:55:35;;;;;;;;;;;;;;;6.64;84.78;96632.09;4975141;28;20436;-78
2022/11/03 01:58:03;;;;;;;;;;;;;;;6.61;84.78;96631.84;4974346;28;20381;-78
2022/11/03 02:00:30;;;;;;;;;;;;;;;6.57;84.20;96633.50;4974892;28;20016;-77
2022/11/03 02:02:56;;;;;;;;;;;;;;;6.50;83.80;96628.41;4972749;28;19993;-78
2022/11/03 02:05:24;;;;;;;;;;;;;;;6.32;83.68;96643.47;4973838;28;19929;-78
2022/11/03 02:07:54;;;;;;;;;;;;;;;6.24;84.44;96635.94;4974854;28;19937;-78
2022/11/03 02:10:22;;;;;;;;;;;;;;;6.23;84.84;96631.63;4974260;28;20004;-77
2022/11/03 02:12:50;;;;;;;;;;;;;;;6.24;85.31;96627.84;4971323;28;19922;-77
2022/11/03 02:15:17;;;;;;;;;;;;;;;6.23;85.65;96628.94;4974239;28;19928;-77
2022/11/03 02:17:46;;;;;;;;;;;;;;;6.22;86.07;96621.91;4974205;28;19922;-78
2022/11/03 02:20:14;;;;;;;;;;;;;;;6.18;86.25;96626.28;4973886;28;19922;-78
2022/11/03 02:22:48;;;;;;;;;;;;;;;6.16;86.96;96620.31;4974335;28;19928;-77
2022/11/03 02:25:17;;;;;;;;;;;;;;;6.13;87.23;96618.19;4973817;28;19961;-78
2022/11/03 02:27:45;;;;;;;;;;;;;;;6.15;87.88;96621.41;4973023;28;19922;-78
2022/11/03 02:30:12;;;;;;;;;;;;;;;6.18;88.04;96608.16;4973890;28;19929;-77
2022/11/03 02:32:42;;;;;;;;;;;;;;;6.22;88.26;96622.72;4974531;28;19929;-78
2022/11/03 02:35:11;;;;;;;;;;;;;;;6.23;88.41;96612.72;4975702;28;20004;-77
2022/11/03 02:37:40;;;;;;;;;;;;;;;6.25;88.76;96610.53;4978532;28;19922;-77
2022/11/03 02:40:09;;;;;;;;;;;;;;;6.29;88.39;96611.56;4977767;28;19922;-77
2022/11/03 02:42:36;;;;;;;;;;;;;;;6.28;88.51;96609.97;4976464;28;19922;-76
2022/11/03 02:45:07;;;;;;;;;;;;;;;6.29;87.84;96606.16;4976557;28;19960;-78
2022/11/03 02:47:35;;;;;;;;;;;;;;;6.29;88.09;96603.47;4974242;28;19929;-76
2022/11/03 02:50:06;;;;;;;;;;;;;;;6.29;88.18;96598.03;4956539;28;19971;-78
2022/11/03 02:52:37;;;;;;;;;;;;;;;6.30;87.90;96602.38;4993266;28;19945;-77
2022/11/03 02:55:07;;;;;;;;;;;;;;;6.29;88.08;96589.94;4992729;28;19927;-78
2022/11/03 02:57:36;;;;;;;;;;;;;;;6.28;87.94;96591.03;4992071;28;19928;-78
2022/11/03 03:00:06;;;;;;;;;;;;;;;6.30;87.79;96582.63;4992572;28;19928;-78
2022/11/03 03:02:34;;;;;;;;;;;;;;;6.29;87.63;96581.81;4991835;28;19922;-77
2022/11/03 03:05:03;;;;;;;;;;;;;;;6.25;87.13;96578.06;4992804;28;19928;-77
2022/11/03 03:07:31;;;;;;;;;;;;;;;6.25;87.36;96569.97;4979800;28;20373;-78
2022/11/03 03:10:01;;;;;;;;;;;;;;;6.25;87.15;96562.66;4973379;28;19921;-77
2022/11/03 03:12:27;;;;;;;;;;;;;;;6.23;87.05;96558.63;4969269;28;19929;-77
2022/11/03 03:14:55;;;;;;;;;;;;;;;6.20;86.58;96548.38;4973290;28;19929;-79
2022/11/03 03:17:28;;;;;;;;;;;;;;;6.16;86.44;96555.44;4972329;28;19953;-78
2022/11/03 03:19:58;;;;;;;;;;;;;;;6.15;86.89;96545.72;4973469;28;20262;-78
2022/11/03 03:22:28;;;;;;;;;;;;;;;6.14;86.95;96544.09;4972976;28;19921;-78
2022/11/03 03:24:58;;;;;;;;;;;;;;;6.14;87.19;96544.09;4973114;28;19922;-78
2022/11/03 03:27:26;;;;;;;;;;;;;;;6.14;86.96;96533.28;4972175;28;20344;-78
2022/11/03 03:29:57;;;;;;;;;;;;;;;6.15;87.05;96529.50;4972789;28;20430;-77
2022/11/03 03:32:26;;;;;;;;;;;;;;;6.15;87.13;96534.91;4972726;28;20453;-78
2022/11/03 03:34:53;;;;;;;;;;;;;;;6.14;87.18;96527.88;4973385;28;19926;-77
2022/11/03 03:37:21;;;;;;;;;;;;;;;6.16;87.79;96526.53;4971987;28;19922;-77
2022/11/03 03:39:50;;;;;;;;;;;;;;;6.20;88.23;96521.31;4973184;28;20025;-77
2022/11/03 03:42:19;;;;;;;;;;;;;;;6.21;87.99;96522.94;4972258;28;19922;-77
2022/11/03 03:44:46;;;;;;;;;;;;;;;6.22;87.94;96529.97;4972831;28;20289;-78
2022/11/03 03:47:15;;;;;;;;;;;;;;;6.24;87.74;96520.47;4972162;28;20304;-77
2022/11/03 03:49:43;;;;;;;;;;;;;;;6.25;87.88;96515.88;4972807;28;19958;-78
2022/11/03 03:52:09;;;;;;;;;;;;;;;6.29;88.42;96514.22;4972176;28;20001;-77
2022/11/03 03:54:36;;;;;;;;;;;;;;;6.33;89.33;96526.06;4972869;28;20429;-77
2022/11/03 03:57:04;;;;;;;;;;;;;;;6.43;89.76;96519.75;4972196;28;19933;-77
2022/11/03 03:59:31;;;;;;;;;;;;;;;6.47;90.41;96516.19;4973037;28;19922;-78
2022/11/03 04:01:57;;;;;;;;;;;;;;;6.52;90.92;96529.66;4973203;28;20246;-77
2022/11/03 04:04:24;;;;;;;;;;;;;;;6.58;90.96;96518.75;4972137;28;19929;-78
2022/11/03 04:07:45;;;;;;;;;;;;;;;6.66;91.31;96516.22;4972251;28;19929;-77
2022/11/03 04:09:39;;;;;;;;;;;;;;;6.72;91.81;96519.69;4953359;29;20322;-77
2022/11/03 04:23:03;;;;;;;;;;;;;;;6.72;92.94;96496.13;4971920;28;19961;-78
2022/11/03 04:25:29;;;;;;;;;;;;;;;6.77;93.15;96500.69;4974427;28;19922;-78
2022/11/03 04:27:56;;;;;;;;;;;;;;;6.74;93.35;96498.56;4975883;28;19922;-78
2022/11/03 04:30:23;;;;;;;;;;;;;;;6.76;93.45;96494.47;4958605;28;19922;-80
2022/11/03 04:32:51;;;;;;;;;;;;;;;6.78;93.60;96484.13;4976736;28;20342;-77
2022/11/03 04:35:18;;;;;;;;;;;;;;;6.82;93.57;96488.97;4975642;28;19922;-78
2022/11/03 04:37:44;;;;;;;;;;;;;;;6.86;93.68;96492.72;4975119;28;19922;-78
2022/11/03 04:40:16;;;;;;;;;;;;;;;6.88;93.67;96491.31;4974968;28;20410;-78
2022/11/03 04:42:42;;;;;;;;;;;;;;;6.92;94.09;96486.94;4975186;28;19953;-79
2022/11/03 04:45:14;;;;;;;;;;;;;;;6.90;94.05;96480.22;4974946;28;20312;-78
2022/11/03 04:47:40;;;;;;;;;;;;;;;6.88;94.25;96472.38;4974647;28;19921;-78
2022/11/03 04:50:14;;;;;;;;;;;;;;;6.89;94.32;96465.88;4974395;28;19922;-77
2022/11/03 04:52:41;;;;;;;;;;;;;;;6.94;94.28;96465.81;4975045;28;19922;-78
2022/11/03 04:55:10;;;;;;;;;;;;;;;6.88;94.31;96466.97;4974140;28;20001;-78
2022/11/03 04:57:39;;;;;;;;;;;;;;;6.89;93.97;96467.75;4974740;28;19928;-78
2022/11/03 05:00:07;;;;;;;;;;;;;;;6.90;93.83;96464.78;4974389;28;19922;-77
2022/11/03 05:02:33;;;;;;;;;;;;;;;6.94;93.68;96460.41;4975138;28;19973;-78
2022/11/03 05:04:59;;;;;;;;;;;;;;;6.97;93.97;96451.69;4975394;28;19945;-78
2022/11/03 05:07:31;;;;;;;;;;;;;;;6.99;93.70;96446.78;4973957;28;19929;-77
2022/11/03 05:09:58;;;;;;;;;;;;;;;7.02;93.87;96448.91;4975192;28;19928;-78
2022/11/03 05:12:24;;;;;;;;;;;;;;;7.03;93.79;96436.16;4954103;28;19929;-77
2022/11/03 05:14:52;;;;;;;;;;;;;;;7.04;94.09;96438.56;4975316;28;19922;-78
2022/11/03 05:17:22;;;;;;;;;;;;;;;7.05;94.00;96439.41;4974336;28;19922;-78
2022/11/03 05:19:50;;;;;;;;;;;;;;;7.07;93.51;96437.19;4974873;28;19925;-77
2022/11/03 05:22:18;;;;;;;;;;;;;;;7.02;93.71;96429.16;4974383;28;19922;-77
2022/11/03 05:24:44;;;;;;;;;;;;;;;7.02;93.46;96423.75;4975057;28;19922;-77
2022/11/03 05:27:15;;;;;;;;;;;;;;;7.05;93.40;96434.00;4974223;28;19928;-77
2022/11/03 05:29:42;;;;;;;;;;;;;;;7.08;93.17;96422.56;4974640;28;19922;-77
2022/11/03 05:32:14;;;;;;;;;;;;;;;7.05;92.95;96423.97;4974309;28;19929;-77
2022/11/03 05:34:42;;;;;;;;;;;;;;;7.09;92.81;96423.34;4975135;28;20293;-77
2022/11/03 05:37:16;;;;;;;;;;;;;;;7.09;92.83;96426.06;4973660;28;19921;-77
2022/11/03 05:39:44;;;;;;;;;;;;;;;7.07;92.59;96423.66;4974168;28;20344;-77
2022/11/03 05:42:20;;;;;;;;;;;;;;;6.99;91.88;96425.13;4970694;28;19941;-78
2022/11/03 05:44:47;;;;;;;;;;;;;;;6.72;91.37;96423.06;4957247;28;19942;-78
2022/11/03 05:47:19;;;;;;;;;;;;;;;6.66;91.05;96424.22;4973675;28;20454;-78
2022/11/03 05:49:46;;;;;;;;;;;;;;;6.69;91.09;96420.16;4974352;28;19928;-77
2022/11/03 05:52:14;;;;;;;;;;;;;;;6.70;90.94;96417.16;4972217;28;20292;-77
2022/11/03 05:54:40;;;;;;;;;;;;;;;6.67;91.22;96414.22;4972382;28;19993;-77
2022/11/03 05:57:10;;;;;;;;;;;;;;;6.71;91.51;96417.94;4973350;28;19922;-78
2022/11/03 05:59:37;;;;;;;;;;;;;;;6.77;92.19;96404.03;4956779;28;20293;-77
2022/11/03 06:02:08;;;;;;;;;;;;;;;6.81;92.50;96415.09;4973739;28;20392;-77
2022/11/03 06:04:39;;;;;;;;;;;;;;;6.84;92.47;96406.41;4973727;28;19922;-77
2022/11/03 06:07:11;;;;;;;;;;;;;;;6.87;92.97;96411.22;4973670;28;19926;-78
2022/11/03 06:09:37;;;;;;;;;;;;;;;6.90;93.31;96394.41;4974118;28;19922;-77
2022/11/03 06:12:05;;;;;;;;;;;;;;;6.83;94.13;96398.56;4970154;28;19926;-78
2022/11/03 06:14:32;;;;;;;;;;;;;;;6.86;94.45;96393.38;4973753;28;20365;-77
2022/11/03 06:16:59;;;;;;;;;;;;;;;6.87;94.57;96397.69;4974021;28;20035;-77
2022/11/03 06:19:27;;;;;;;;;;;;;;;6.89;94.33;96400.09;4972460;28;19929;-78
2022/11/03 06:21:56;;;;;;;;;;;;;;;6.79;94.76;96393.75;4973879;28;19947;-78
2022/11/03 06:24:24;;;;;;;;;;;;;;;6.75;94.38;96395.44;4973462;28;20270;-77
2022/11/03 06:26:51;;;;;;;;;;;;;;;6.73;93.94;96404.91;4973788;28;19929;-77
2022/11/03 06:29:19;;;;;;;;;;;;;;;6.77;94.01;96400.53;4973233;28;19929;-77
2022/11/03 06:31:48;;;;;;;;;;;;;;;6.77;93.68;96400.53;4973450;28;19922;-77
2022/11/03 06:34:22;;;;;;;;;;;;;;;6.79;93.80;96399.16;4972610;28;19922;-78
2022/11/03 06:36:49;;;;;;;;;;;;;;;6.85;93.79;96402.59;4974190;28;19922;-78
2022/11/03 06:39:19;;;;;;;;;;;;;;;6.83;93.91;96393.94;4973118;28;19922;-76
2022/11/03 06:41:45;;;;;;;;;;;;;;;6.86;94.24;96396.09;4969675;28;20017;-76
2022/11/03 06:44:19;;;;;;;;;;;;;;;6.82;94.31;96392.34;4972579;28;19922;-76
2022/11/03 06:46:45;;;;;;;;;;;;;;;6.86;94.30;96381.75;4973130;28;19929;-75
2022/11/03 06:49:24;;;;;;;;;;;;;;;6.82;94.43;96381.53;4971532;28;20393;-75
2022/11/03 06:51:50;;;;;;;;;;;;;;;6.85;94.27;96377.44;4974356;28;19929;-78
2022/11/03 06:54:19;;;;;;;;;;;;;;;6.85;94.29;96380.16;4956553;28;19922;-79
2022/11/03 06:56:45;;;;;;;;;;;;;;;6.89;93.66;96381.97;4972509;28;20287;-78
2022/11/03 06:59:14;;;;;;;;;;;;;;;6.94;93.66;96371.06;4972150;28;19922;-78
2022/11/03 07:01:40;;;;;;;;;;;;;;;6.96;93.88;96377.00;4972990;28;20349;-78
2022/11/03 07:04:13;;;;;;;;;;;;;;;7.01;93.82;96373.41;4974923;28;20293;-78
2022/11/03 07:06:39;;;;;;;;;;;;;;;7.02;93.81;96369.59;4973575;28;19922;-80
2022/11/03 07:09:08;;;;;;;;;;;;;;;6.95;93.99;96363.75;4974018;28;19922;-78
2022/11/03 07:11:41;;;;;;;;;;;;;;;6.97;93.78;96370.47;4970825;28;19922;-77
2022/11/03 07:14:11;;;;;;;;;;;;;;;6.93;93.94;96369.44;4973382;28;19922;-78
2022/11/03 07:16:41;;;;;;;;;;;;;;;6.97;93.97;96377.78;4974088;28;20296;-79
2022/11/03 07:19:12;;;;;;;;;;;;;;;7.01;93.98;96367.97;4973478;28;20436;-78
2022/11/03 07:21:40;;;;;;;;;;;;;;;7.03;93.62;96366.56;4973941;28;19922;-78
2022/11/03 07:24:13;;;;;;;;;;;;;;;7.11;94.08;96372.44;4973441;28;19928;-79
2022/11/03 07:26:41;;;;;;;;;;;;;;;7.19;93.77;96369.84;4974385;28;20284;-78
2022/11/03 07:29:11;;;;;;;;;;;;;;;7.20;93.18;96370.66;4973467;28;20389;-78
2022/11/03 07:31:37;;;;;;;;;;;;;;;7.21;93.10;96372.28;4976173;28;19922;-78
2022/11/03 07:34:10;;;;;;;;;;;;;;;7.20;93.40;96359.81;4983361;28;19922;-79
2022/11/03 07:36:37;;;;;;;;;;;;;;;7.24;93.11;96360.84;4975207;28;19929;-78
2022/11/03 07:39:04;;;;;;;;;;;;;;;7.25;92.88;96362.44;4956422;28;19929;-79
2022/11/03 07:41:32;;;;;;;;;;;;;;;7.29;92.95;96358.03;4954493;28;20584;-78
2022/11/03 07:44:01;;;;;;;;;;;;;;;7.13;92.22;96360.19;4974029;28;19922;-78
2022/11/03 07:46:27;;;;;;;;;;;;;;;6.97;92.37;96356.13;4993315;28;19928;-78
2022/11/03 07:48:56;;;;;;;;;;;;;;;7.09;92.85;96353.75;4993153;28;19928;-77
2022/11/03 07:51:24;;;;;;;;;;;;;;;7.15;92.92;96347.19;4992929;28;20016;-79
2022/11/03 07:53:52;;;;;;;;;;;;;;;7.16;93.14;96353.41;4993098;28;19926;-79
2022/11/03 07:56:19;;;;;;;;;;;;;;;7.02;93.21;96343.31;4992735;28;19937;-79
2022/11/03 07:58:48;;;;;;;;;;;;;;;7.09;93.28;96336.72;4993887;28;19933;-79
2022/11/03 08:01:22;;;;;;;;;;;;;;;7.22;93.33;96335.97;4979636;28;19929;-79
2022/11/03 08:03:49;;;;;;;;;;;;;;;7.35;93.49;96332.47;4997930;28;19944;-79
2022/11/03 08:06:15;;;;;;;;;;;;;;;7.41;94.05;96336.69;4997587;28;20423;-79
2022/11/03 08:08:42;;;;;;;;;;;;;;;7.46;93.86;96331.19;4998333;28;20473;-79
2022/11/03 08:11:08;;;;;;;;;;;;;;;7.54;93.90;96316.16;4998497;28;19928;-80
2022/11/03 08:13:37;;;;;;;;;;;;;;;7.53;93.53;96304.53;4998477;28;19949;-80
2022/11/03 08:16:04;;;;;;;;;;;;;;;7.50;92.21;96307.03;4997427;28;19944;-80
2022/11/03 08:18:32;;;;;;;;;;;;;;;7.62;92.24;96301.09;4997067;28;20393;-79
2022/11/03 08:20:58;;;;;;;;;;;;;;;7.61;92.22;96307.63;4988785;28;19922;-79
2022/11/03 08:23:25;;;;;;;;;;;;;;;7.43;91.63;96306.63;4975919;28;20411;-79
2022/11/03 08:25:51;;;;;;;;;;;;;;;7.57;91.70;96305.53;4976727;28;20554;-80
2022/11/03 08:28:17;;;;;;;;;;;;;;;7.72;92.78;96300.91;4976811;28;19922;-79
2022/11/03 08:30:44;;;;;;;;;;;;;;;7.79;92.55;96285.06;4978054;28;20428;-78
2022/11/03 08:33:10;;;;;;;;;;;;;;;7.54;91.26;96295.28;4976561;28;20368;-80
2022/11/03 08:35:38;;;;;;;;;;;;;;;7.64;90.63;96288.88;4977702;28;20013;-79
2022/11/03 08:38:05;;;;;;;;;;;;;;;7.63;91.30;96281.84;4967603;28;19926;-78
2022/11/03 08:40:31;;;;;;;;;;;;;;;7.73;91.59;96276.25;4976061;28;20381;-79
2022/11/03 08:42:57;;;;;;;;;;;;;;;7.84;91.73;96272.22;4977689;28;19921;-79
2022/11/03 08:45:24;;;;;;;;;;;;;;;7.93;92.28;96266.88;4976701;28;19928;-79
2022/11/03 08:47:50;;;;;;;;;;;;;;;8.07;91.79;96262.22;4978292;28;20488;-79
2022/11/03 08:50:16;;;;;;;;;;;;;;;8.19;92.00;96259.00;4978104;28;20403;-79
2022/11/03 08:52:44;;;;;;;;;;;;;;;8.25;91.48;96243.44;4982443;28;19928;-80
2022/11/03 08:55:11;;;;;;;;;;;;;;;8.23;91.47;96240.22;4991416;28;20010;-79
2022/11/03 08:57:37;;;;;;;;;;;;;;;8.30;91.68;96232.44;4985053;28;19922;-79
2022/11/03 09:00:04;;;;;;;;;;;;;;;8.32;91.80;96222.09;4993252;28;19921;-79
2022/11/03 09:02:31;;;;;;;;;;;;;;;8.32;91.22;96227.53;4996397;28;19910;-79
2022/11/03 09:04:57;;;;;;;;;;;;;;;8.37;91.84;96224.72;4985862;28;20009;-79
2022/11/03 09:07:24;;;;;;;;;;;;;;;8.48;91.63;96220.66;4980426;28;19922;-79
2022/11/03 09:09:51;;;;;;;;;;;;;;;8.40;91.89;96218.66;4978773;28;19922;-78
2022/11/03 09:12:18;;;;;;;;;;;;;;;8.44;92.49;96214.25;4973254;28;19922;-79
2022/11/03 09:14:44;;;;;;;;;;;;;;;8.61;92.22;96214.38;4977139;28;20389;-78
2022/11/03 09:17:10;;;;;;;;;;;;;;;8.68;92.02;96216.66;4976560;28;19929;-79
2022/11/03 09:19:37;;;;;;;;;;;;;;;8.80;92.19;96207.94;4977161;28;20449;-79
2022/11/03 09:22:03;;;;;;;;;;;;;;;9.05;92.41;96204.59;4976456;28;19922;-79
2022/11/03 09:24:30;;;;;;;;;;;;;;;9.23;91.79;96191.09;4976858;28;19922;-79
2022/11/03 09:26:58;;;;;;;;;;;;;;;9.39;90.88;96195.78;4977497;28;20009;-78
2022/11/03 09:29:24;;;;;;;;;;;;;;;9.56;90.79;96195.06;4976166;28;19922;-79
2022/11/03 09:31:50;;;;;;;;;;;;;;;9.66;88.44;96194.78;4976649;28;19928;-79
2022/11/03 09:34:17;;;;;;;;;;;;;;;9.31;86.66;96202.00;4976116;28;19928;-79
2022/11/03 09:36:43;;;;;;;;;;;;;;;9.29;88.03;96200.69;4976864;28;19980;-79
2022/11/03 09:39:10;;;;;;;;;;;;;;;9.36;87.78;96199.16;4975732;28;20365;-78
2022/11/03 09:41:36;;;;;;;;;;;;;;;9.42;88.72;96188.94;4976568;28;19922;-79
2022/11/03 09:44:04;;;;;;;;;;;;;;;9.39;89.32;96187.63;4976016;28;20387;-79
2022/11/03 09:46:31;;;;;;;;;;;;;;;9.55;89.36;96179.03;4976475;28;19928;-79
2022/11/03 09:48:58;;;;;;;;;;;;;;;9.65;88.62;96171.41;4976192;28;19922;-79
2022/11/03 09:51:26;;;;;;;;;;;;;;;9.79;89.06;96170.47;4975381;28;19922;-79
2022/11/03 09:53:52;;;;;;;;;;;;;;;9.85;89.01;96174.66;4975564;28;19928;-79
2022/11/03 09:56:21;;;;;;;;;;;;;;;10.10;88.45;96163.00;4975342;28;20349;-79
2022/11/03 09:58:48;;;;;;;;;;;;;;;10.20;87.79;96165.41;4975632;28;19925;-79
2022/11/03 10:01:16;;;;;;;;;;;;;;;10.18;88.26;96167.66;4975054;28;19922;-79
2022/11/03 10:03:43;;;;;;;;;;;;;;;10.11;87.73;96167.31;4976323;28;20016;-79
2022/11/03 10:06:10;;;;;;;;;;;;;;;10.10;87.85;96154.84;4975392;28;19922;-79
2022/11/03 10:08:38;;;;;;;;;;;;;;;10.22;87.69;96161.56;4976297;28;19922;-79
2022/11/03 10:11:08;;;;;;;;;;;;;;;10.27;86.64;96154.06;4971856;28;19930;-79
2022/11/03 10:13:36;;;;;;;;;;;;;;;10.19;86.81;96152.13;4975458;28;20377;-78
2022/11/03 10:16:04;;;;;;;;;;;;;;;10.23;87.04;96152.28;4974994;28;19921;-80
2022/11/03 10:18:32;;;;;;;;;;;;;;;10.39;86.43;96153.44;4975210;28;19929;-79
2022/11/03 10:21:03;;;;;;;;;;;;;;;10.37;87.50;96147.50;4975505;28;19965;-79
2022/11/03 10:23:29;;;;;;;;;;;;;;;10.34;86.64;96140.00;4974133;28;20000;-79
2022/11/03 10:26:03;;;;;;;;;;;;;;;10.31;86.75;96140.63;4975028;28;20025;-79
2022/11/03 10:28:29;;;;;;;;;;;;;;;10.30;87.28;96130.88;4975266;28;19929;-79
2022/11/03 10:30:57;;;;;;;;;;;;;;;10.64;86.77;96125.34;4974983;28;20396;-78
2022/11/03 10:33:28;;;;;;;;;;;;;;;10.97;86.91;96120.16;4974555;28;19922;-78
2022/11/03 10:35:56;;;;;;;;;;;;;;;11.16;86.20;96119.75;4975185;28;20373;-78
2022/11/03 10:38:27;;;;;;;;;;;;;;;11.30;83.10;96108.63;4974031;28;19922;-78
2022/11/03 10:40:54;;;;;;;;;;;;;;;11.27;82.47;96108.47;4971307;28;19922;-79
2022/11/03 10:43:21;;;;;;;;;;;;;;;11.25;82.16;96108.81;4974031;28;19944;-78
2022/11/03 10:45:48;;;;;;;;;;;;;;;11.31;81.94;96106.69;4974526;28;19925;-79
2022/11/03 10:48:15;;;;;;;;;;;;;;;11.29;81.98;96106.25;4953570;28;19946;-78
2022/11/03 10:50:42;;;;;;;;;;;;;;;11.50;83.24;96109.81;4955412;28;19929;-79
2022/11/03 10:53:14;;;;;;;;;;;;;;;11.60;81.20;96105.91;4954735;28;19922;-79
2022/11/03 10:55:41;;;;;;;;;;;;;;;11.51;80.21;96103.22;4955077;28;19922;-78
2022/11/03 10:58:07;;;;;;;;;;;;;;;11.44;81.41;96101.03;4954503;28;19929;-79
2022/11/03 11:00:34;;;;;;;;;;;;;;;11.44;81.64;96094.78;4955357;28;19941;-79
2022/11/03 11:03:01;;;;;;;;;;;;;;;11.54;81.29;96097.13;4955325;28;20024;-79
2022/11/03 11:05:28;;;;;;;;;;;;;;;11.48;80.91;96090.25;4954355;28;19926;-79
2022/11/03 11:07:55;;;;;;;;;;;;;;;11.53;80.76;96087.31;4955068;28;19929;-79
2022/11/03 11:10:24;;;;;;;;;;;;;;;11.65;80.72;96090.16;4954354;28;19934;-78
2022/11/03 11:13:12;;;;;;;;;;;;;;;11.78;80.91;96091.00;4954251;28;20168;-79
2022/11/03 11:15:40;;;;;;;;;;;;;;;11.61;79.69;96086.47;4954377;28;19922;-78
2022/11/03 11:18:06;;;;;;;;;;;;;;;11.88;80.80;96078.94;4954335;28;19926;-79
2022/11/03 11:20:37;;;;;;;;;;;;;;;11.89;80.78;96075.06;4954286;28;20398;-79
2022/11/03 11:23:25;;;;;;;;;;;;;;;11.85;80.67;96063.22;4953660;28;19928;-79
2022/11/03 11:26:14;;;;;;;;;;;;;;;11.91;79.71;96061.91;4937155;28;19922;-77
2022/11/03 11:28:41;;;;;;;;;;;;;;;11.77;79.09;96060.22;4953553;28;19926;-78
2022/11/03 11:31:26;;;;;;;;;;;;;;;11.82;79.15;96061.19;4953637;28;19985;-79
2022/11/03 11:34:07;;;;;;;;;;;;;;;11.87;79.34;96060.97;4946005;28;19945;-80
2022/11/03 11:36:33;;;;;;;;;;;;;;;11.95;78.97;96060.09;4953139;28;19922;-78
2022/11/03 11:39:00;;;;;;;;;;;;;;;11.94;78.81;96055.78;4954030;28;19922;-78
2022/11/03 11:41:45;;;;;;;;;;;;;;;11.99;79.06;96070.00;4948737;29;19922;-79
2022/11/03 11:44:30;;;;;;;;;;;;;;;11.90;78.50;96065.75;4953726;28;20007;-79
2022/11/03 11:46:58;;;;;;;;;;;;;;;11.86;78.92;96059.38;4953562;28;19937;-79
2022/11/03 11:49:25;;;;;;;;;;;;;;;11.90;79.45;96054.84;4952974;28;20358;-78
2022/11/03 11:51:51;;;;;;;;;;;;;;;11.97;80.00;96049.66;4953949;28;20393;-79
2022/11/03 11:54:20;;;;;;;;;;;;;;;11.91;79.23;96045.53;4953408;28;19991;-78
2022/11/03 11:56:48;;;;;;;;;;;;;;;11.98;78.96;96045.78;4953861;29;20128;-79
2022/11/03 11:59:19;;;;;;;;;;;;;;;11.94;79.56;96044.88;4953453;28;19922;-78
2022/11/03 12:01:48;;;;;;;;;;;;;;;11.83;78.68;96047.19;4953494;28;19930;-79
2022/11/03 12:04:18;;;;;;;;;;;;;;;11.66;79.44;96034.47;4953307;28;19922;-79
2022/11/03 12:06:45;;;;;;;;;;;;;;;11.67;79.04;96035.25;4953697;28;19932;-78
2022/11/03 12:09:16;;;;;;;;;;;;;;;11.70;79.10;96034.59;4953242;28;19922;-79
2022/11/03 12:11:43;;;;;;;;;;;;;;;11.73;79.43;96031.19;4953469;28;19995;-78
2022/11/03 12:14:21;;;;;;;;;;;;;;;11.71;79.43;96025.28;4953870;28;19923;-79
2022/11/03 12:16:48;;;;;;;;;;;;;;;11.73;80.13;96021.09;4954232;28;19930;-78
2022/11/03 12:19:35;;;;;;;;;;;;;;;11.84;80.00;96017.97;4953682;28;19923;-78
2022/11/03 12:22:02;;;;;;;;;;;;;;;11.92;79.36;96020.66;4953380;28;20377;-80
2022/11/03 12:24:36;;;;;;;;;;;;;;;12.04;79.35;96011.72;4954065;29;19929;-79
2022/11/03 12:27:03;;;;;;;;;;;;;;;12.15;77.95;96018.34;4951988;28;19929;-79
2022/11/03 12:29:30;;;;;;;;;;;;;;;12.09;77.87;96008.78;4954527;28;20016;-79
2022/11/03 12:31:56;;;;;;;;;;;;;;;11.96;77.80;96012.59;4955017;28;19923;-79
2022/11/03 12:34:23;;;;;;;;;;;;;;;11.96;78.23;95999.75;4953850;28;19929;-78
2022/11/03 12:36:52;;;;;;;;;;;;;;;11.94;78.36;95999.28;4955062;29;19972;-79
2022/11/03 12:39:19;;;;;;;;;;;;;;;11.90;78.67;96003.00;4954209;28;19922;-79
2022/11/03 12:41:46;;;;;;;;;;;;;;;11.92;78.65;96011.66;4954611;28;19922;-79
2022/11/03 12:44:12;;;;;;;;;;;;;;;11.82;78.15;96009.34;4953786;28;19923;-79
2022/11/03 12:46:39;;;;;;;;;;;;;;;11.55;79.43;96006.00;4955520;28;19929;-78
2022/11/03 12:49:05;;;;;;;;;;;;;;;11.53;80.09;95991.88;4957243;28;20386;-80
2022/11/03 12:51:32;;;;;;;;;;;;;;;11.52;80.36;95982.13;4956790;28;19926;-79
2022/11/03 12:53:59;;;;;;;;;;;;;;;11.60;80.01;95975.81;4957610;28;19933;-78
2022/11/03 12:56:26;;;;;;;;;;;;;;;11.65;79.68;95966.63;4957355;28;19922;-78
2022/11/03 12:58:52;;;;;;;;;;;;;;;11.65;79.90;95961.97;4949637;28;19922;-78
2022/11/03 13:01:19;;;;;;;;;;;;;;;11.67;79.79;95964.34;4956383;28;19930;-79
2022/11/03 13:03:45;;;;;;;;;;;;;;;11.69;79.63;95972.97;4957072;28;19922;-80
2022/11/03 13:06:13;;;;;;;;;;;;;;;11.77;80.01;95970.19;4956335;28;19923;-79
2022/11/03 13:08:39;;;;;;;;;;;;;;;11.70;79.31;95964.50;4956761;28;19923;-79
2022/11/03 13:12:30;;;;;;;;;;;;;;;11.19;82.03;95961.03;4956400;28;19922;-79
2022/11/03 13:13:55;;;;;;;;;;;;;;;11.39;81.67;95961.38;4949504;29;19922;-78
2022/11/03 13:16:22;;;;;;;;;;;;;;;11.39;82.75;95947.75;4956270;29;19936;-78
2022/11/03 13:18:49;;;;;;;;;;;;;;;11.42;81.89;95947.06;4956948;29;19923;-79